| time (UTC) | temp F | wind direction | speed MPH | gust MPH | rain 1hr in | rain 24hr in | rain mn in | humidity % | barometer mb |
| 20260506091040 | 51 | 298 | 4.0 | 17.0 | 0.00 | 0.00 | 0.00 | 45 | 1012.9 |
| 20260506090539 | 51 | 257 | 9.0 | 17.0 | 0.00 | 0.00 | 0.00 | 51 | 1012.8 |
| 20260506090044 | 49 | 279 | 6.0 | 14.0 | 0.00 | 0.00 | 0.00 | 51 | 1012.9 |
| 20260506085536 | 49 | 258 | 8.0 | 14.0 | 0.00 | 0.00 | 0.00 | 50 | 1012.9 |
| 20260506085037 | 50 | 266 | 9.0 | 13.0 | 0.00 | 0.00 | 0.00 | 47 | 1012.9 |
| 20260506084552 | 50 | 270 | 6.0 | 11.0 | 0.00 | 0.00 | 0.00 | 48 | 1012.9 |
| 20260506084037 | 48 | 331 | 4.0 | 11.0 | 0.00 | 0.00 | 0.00 | 47 | 1012.9 |
| 20260506083541 | 47 | 305 | 6.0 | 17.0 | 0.00 | 0.00 | 0.00 | 47 | 1012.9 |
| 20260506083050 | 48 | 261 | 8.0 | 17.0 | 0.00 | 0.00 | 0.00 | 47 | 1012.8 |
| 20260506082542 | 48 | 296 | 5.0 | 13.0 | 0.00 | 0.00 | 0.00 | 51 | 1012.9 |
| 20260506082040 | 48 | 341 | 7.0 | 13.0 | 0.00 | 0.00 | 0.00 | 46 | 1012.8 |
| 20260506081553 | 50 | 248 | 8.0 | 13.0 | 0.00 | 0.00 | 0.00 | 47 | 1012.8 |
| 20260506081038 | 50 | 327 | 3.0 | 11.0 | 0.00 | 0.00 | 0.00 | 48 | 1012.7 |
| 20260506080537 | 49 | 254 | 5.0 | 11.0 | 0.00 | 0.00 | 0.00 | 47 | 1012.7 |
| 20260506073058 | 48 | 257 | 7.0 | 13.0 | 0.00 | 0.00 | 0.00 | 49 | 1012.4 |
| 20260506072539 | 47 | 292 | 3.0 | 10.0 | 0.00 | 0.00 | 0.00 | 49 | 1012.4 |
| 20260506072041 | 47 | 307 | 4.0 | 12.0 | 0.00 | 0.00 | 0.00 | 53 | 1012.4 |
| 20260506071600 | 48 | 288 | 6.0 | 12.0 | 0.00 | 0.00 | 0.00 | 49 | 1012.3 |
| 20260506071038 | 49 | 302 | 4.0 | 13.0 | 0.00 | 0.00 | 0.00 | 50 | 1012.3 |
| 20260506070538 | 48 | 292 | 7.0 | 13.0 | 0.00 | 0.00 | 0.00 | 51 | 1012.3 |
| 20260506062039 | 46 | 255 | 4.0 | 9.0 | 0.00 | 0.00 | 0.00 | 60 | 1012.0 |
| 20260506061547 | 45 | 263 | 2.0 | 8.0 | 0.00 | 0.00 | 0.00 | 59 | 1012.0 |
| 20260506061039 | 45 | 244 | 4.0 | 7.0 | 0.00 | 0.00 | 0.00 | 62 | 1011.9 |
| 20260506060539 | 45 | 185 | 3.0 | 6.0 | 0.00 | 0.00 | 0.00 | 64 | 1011.9 |
| 20260506051038 | 41 | 272 | 4.0 | 7.0 | 0.00 | 0.00 | 0.00 | 79 | 1011.5 |
| 20260506050538 | 41 | 244 | 3.0 | 6.0 | 0.00 | 0.00 | 0.00 | 82 | 1011.6 |
| 20260506045037 | 39 | 244 | 2.0 | 4.0 | 0.00 | 0.00 | 0.00 | 87 | 1011.4 |
| 20260506044553 | 38 | 217 | 1.0 | 3.0 | 0.00 | 0.00 | 0.00 | 88 | 1011.4 |
| 20260506044038 | 38 | 205 | 1.0 | 3.0 | 0.00 | 0.00 | 0.00 | 90 | 1011.3 |
| 20260506043543 | 36 | 12 | 0.0 | 2.0 | 0.00 | 0.00 | 0.00 | 90 | 1011.2 |
| 20260506043046 | 35 | 12 | 0.0 | 2.0 | 0.00 | 0.00 | 0.00 | 90 | 1011.2 |
| 20260506042540 | 35 | 5 | 0.0 | 2.0 | 0.00 | 0.00 | 0.00 | 90 | 1011.2 |
| 20260506042041 | 34 | 9 | 0.0 | 2.0 | 0.00 | 0.00 | 0.00 | 90 | 1011.1 |
| 20260506041557 | 33 | 338 | 0.0 | 2.0 | 0.00 | 0.00 | 0.00 | 91 | 1011.1 |
| 20260506041036 | 33 | 0 | 0.0 | 1.0 | 0.00 | 0.00 | 0.00 | 91 | 1011.1 |
| 20260506040538 | 32 | 0 | 0.0 | 0.0 | 0.00 | 0.00 | 0.00 | 91 | 1011.1 |
| 20260506040054 | 31 | 0 | 0.0 | 0.0 | 0.00 | 0.00 | 0.00 | 91 | 1011.0 |
| 20260506035542 | 30 | 0 | 0.0 | 0.0 | 0.00 | 0.00 | 0.00 | 91 | 1011.0 |
| 20260506035040 | 30 | 0 | 0.0 | 0.0 | 0.00 | 0.00 | 0.00 | 91 | 1010.9 |
| 20260506034548 | 29 | 0 | 0.0 | 0.0 | 0.00 | 0.00 | 0.00 | 92 | 1010.9 |
| 20260506034037 | 29 | 0 | 0.0 | 0.0 | 0.00 | 0.00 | 0.00 | 92 | 1010.8 |
| 20260506033542 | 28 | 0 | 0.0 | 0.0 | 0.00 | 0.00 | 0.00 | 91 | 1010.8 |
| 20260506033045 | 27 | 0 | 0.0 | 0.0 | 0.00 | 0.00 | 0.00 | 91 | 1010.7 |
| 20260506032538 | 27 | 0 | 0.0 | 0.0 | 0.00 | 0.00 | 0.00 | 91 | 1010.6 |
| 20260506032040 | 27 | 0 | 0.0 | 0.0 | 0.00 | 0.00 | 0.00 | 91 | 1010.5 |
| 20260506031546 | 26 | 0 | 0.0 | 0.0 | 0.00 | 0.00 | 0.00 | 91 | 1010.4 |
| 20260506031040 | 26 | 0 | 0.0 | 0.0 | 0.00 | 0.00 | 0.00 | 91 | 1010.4 |
| 20260506030540 | 26 | 0 | 0.0 | 1.0 | 0.00 | 0.00 | 0.00 | 91 | 1010.4 |
| 20260506030051 | 26 | 0 | 0.0 | 2.0 | 0.00 | 0.00 | 0.00 | 91 | 1010.3 |
| 20260506025541 | 26 | 0 | 0.0 | 2.0 | 0.00 | 0.00 | 0.00 | 91 | 1010.3 |
| 20260506025038 | 26 | 313 | 0.0 | 2.0 | 0.00 | 0.00 | 0.00 | 91 | 1010.2 |
| 20260506024543 | 25 | 0 | 1.0 | 2.0 | 0.00 | 0.00 | 0.00 | 91 | 1010.1 |
| 20260506024038 | 25 | 313 | 0.0 | 1.0 | 0.00 | 0.00 | 0.00 | 91 | 1010.1 |
| 20260506023538 | 25 | 0 | 0.0 | 1.0 | 0.00 | 0.00 | 0.00 | 91 | 1010.1 |
| 20260506023051 | 25 | 0 | 0.0 | 0.0 | 0.00 | 0.00 | 0.00 | 91 | 1010.2 |
| 20260506022538 | 25 | 0 | 0.0 | 0.0 | 0.00 | 0.00 | 0.00 | 91 | 1010.1 |
| 20260506022038 | 25 | 0 | 0.0 | 0.0 | 0.00 | 0.00 | 0.00 | 90 | 1010.1 |
| 20260506021553 | 25 | 0 | 0.0 | 0.0 | 0.00 | 0.00 | 0.00 | 90 | 1010.1 |
| 20260506021039 | 26 | 0 | 0.0 | 0.0 | 0.00 | 0.00 | 0.00 | 91 | 1010.1 |
| 20260506020537 | 26 | 0 | 0.0 | 0.0 | 0.00 | 0.00 | 0.00 | 91 | 1010.1 |
| 20260506020051 | 25 | 0 | 0.0 | 0.0 | 0.00 | 0.00 | 0.00 | 90 | 1010.0 |
| 20260506015540 | 26 | 0 | 0.0 | 0.0 | 0.00 | 0.00 | 0.00 | 91 | 1010.0 |
| 20260506015040 | 26 | 0 | 0.0 | 0.0 | 0.00 | 0.00 | 0.00 | 91 | 1010.0 |
| 20260506014557 | 26 | 0 | 0.0 | 0.0 | 0.00 | 0.00 | 0.00 | 91 | 1010.0 |
| 20260506014038 | 26 | 0 | 0.0 | 0.0 | 0.00 | 0.00 | 0.00 | 90 | 1009.9 |
| 20260506013539 | 26 | 0 | 0.0 | 0.0 | 0.00 | 0.00 | 0.00 | 90 | 1009.8 |
| 20260506013043 | 26 | 0 | 0.0 | 0.0 | 0.00 | 0.00 | 0.00 | 90 | 1009.7 |
| 20260506012539 | 26 | 0 | 0.0 | 0.0 | 0.00 | 0.00 | 0.00 | 90 | 1009.6 |
| 20260506012040 | 26 | 0 | 0.0 | 0.0 | 0.00 | 0.00 | 0.00 | 90 | 1009.6 |
| 20260506011546 | 26 | 0 | 0.0 | 0.0 | 0.00 | 0.00 | 0.00 | 90 | 1009.6 |
| 20260506011038 | 26 | 0 | 0.0 | 0.0 | 0.00 | 0.00 | 0.00 | 90 | 1009.5 |
| 20260506010541 | 26 | 0 | 0.0 | 0.0 | 0.00 | 0.00 | 0.00 | 90 | 1009.5 |
| 20260506010050 | 26 | 0 | 0.0 | 0.0 | 0.00 | 0.00 | 0.00 | 90 | 1009.5 |
| 20260506005540 | 26 | 0 | 0.0 | 1.0 | 0.00 | 0.00 | 0.00 | 90 | 1009.4 |
| 20260506005038 | 26 | 0 | 0.0 | 1.0 | 0.00 | 0.00 | 0.00 | 90 | 1009.4 |
| 20260506004547 | 27 | 0 | 0.0 | 2.0 | 0.00 | 0.00 | 0.00 | 90 | 1009.3 |
| 20260506004038 | 27 | 0 | 0.0 | 2.0 | 0.00 | 0.00 | 0.00 | 90 | 1009.3 |
| 20260506003539 | 27 | 256 | 0.0 | 2.0 | 0.00 | 0.00 | 0.00 | 90 | 1009.2 |
| 20260506003047 | 26 | 256 | 0.0 | 1.0 | 0.00 | 0.00 | 0.00 | 90 | 1009.2 |
| 20260506002542 | 27 | 0 | 0.0 | 2.0 | 0.00 | 0.00 | 0.00 | 90 | 1009.2 |
| 20260506002038 | 27 | 0 | 0.0 | 2.0 | 0.00 | 0.00 | 0.00 | 90 | 1009.2 |
| 20260506001609 | 27 | 256 | 0.0 | 2.0 | 0.00 | 0.00 | 0.00 | 90 | 1009.2 |
| 20260506001039 | 27 | 0 | 0.0 | 2.0 | 0.00 | 0.00 | 0.00 | 90 | 1009.2 |
| 20260506000539 | 27 | 256 | 0.0 | 0.0 | 0.00 | 0.00 | 0.00 | 89 | 1009.1 |
| 20260506000055 | 27 | 0 | 0.0 | 0.0 | 0.00 | 0.00 | 0.00 | 89 | 1009.1 |
| 20260505235538 | 27 | 0 | 0.0 | 0.0 | 0.00 | 0.00 | 0.00 | 89 | 1009.0 |
| 20260505235038 | 28 | 0 | 0.0 | 2.0 | 0.00 | 0.00 | 0.00 | 90 | 1009.0 |
| 20260505234553 | 27 | 0 | 0.0 | 2.0 | 0.00 | 0.00 | 0.00 | 90 | 1009.0 |
| 20260505234039 | 27 | 257 | 1.0 | 2.0 | 0.00 | 0.00 | 0.00 | 89 | 1008.9 |
| 20260505233539 | 27 | 256 | 0.0 | 1.0 | 0.00 | 0.00 | 0.00 | 89 | 1008.9 |
| 20260505233056 | 28 | 0 | 0.0 | 0.0 | 0.00 | 0.00 | 0.00 | 89 | 1008.9 |
| 20260505232538 | 28 | 0 | 0.0 | 1.0 | 0.00 | 0.00 | 0.00 | 90 | 1008.9 |
| 20260505232039 | 28 | 0 | 0.0 | 1.0 | 0.00 | 0.00 | 0.00 | 89 | 1008.9 |
| 20260505231555 | 28 | 256 | 0.0 | 1.0 | 0.00 | 0.00 | 0.00 | 89 | 1008.8 |
| 20260505231041 | 28 | 0 | 0.0 | 1.0 | 0.00 | 0.00 | 0.00 | 89 | 1008.9 |
| 20260505230539 | 28 | 0 | 0.0 | 2.0 | 0.00 | 0.00 | 0.00 | 89 | 1008.9 |
| 20260505230110 | 28 | 0 | 0.0 | 2.0 | 0.00 | 0.00 | 0.00 | 89 | 1008.9 |
| 20260505225539 | 28 | 256 | 0.0 | 2.0 | 0.00 | 0.00 | 0.00 | 89 | 1008.8 |
| 20260505225039 | 28 | 0 | 0.0 | 2.0 | 0.00 | 0.00 | 0.00 | 89 | 1008.8 |
| 20260505224552 | 28 | 257 | 0.0 | 2.0 | 0.00 | 0.00 | 0.00 | 89 | 1008.9 |
| 20260505224039 | 28 | 0 | 0.0 | 0.0 | 0.00 | 0.00 | 0.00 | 88 | 1008.9 |
| 20260505223538 | 28 | 0 | 0.0 | 0.0 | 0.00 | 0.00 | 0.00 | 88 | 1008.8 |
| 20260505223058 | 29 | 0 | 0.0 | 0.0 | 0.00 | 0.00 | 0.00 | 88 | 1008.8 |
| 20260505222538 | 29 | 0 | 0.0 | 0.0 | 0.00 | 0.00 | 0.00 | 88 | 1008.7 |
| 20260505222038 | 29 | 0 | 0.0 | 0.0 | 0.00 | 0.00 | 0.00 | 88 | 1008.8 |
| 20260505221553 | 29 | 0 | 0.0 | 0.0 | 0.00 | 0.00 | 0.00 | 87 | 1008.7 |
| 20260505221039 | 29 | 0 | 0.0 | 0.0 | 0.00 | 0.00 | 0.00 | 87 | 1008.7 |
| 20260505220542 | 29 | 0 | 0.0 | 0.0 | 0.00 | 0.00 | 0.00 | 87 | 1008.7 |
| 20260505220052 | 29 | 0 | 0.0 | 0.0 | 0.00 | 0.00 | 0.00 | 87 | 1008.7 |
| 20260505215539 | 29 | 0 | 0.0 | 1.0 | 0.00 | 0.00 | 0.00 | 87 | 1008.7 |
| 20260505215039 | 30 | 0 | 0.0 | 1.0 | 0.00 | 0.00 | 0.00 | 88 | 1008.6 |
| 20260505214559 | 29 | 0 | 0.0 | 0.0 | 0.00 | 0.00 | 0.00 | 87 | 1008.5 |
| 20260505214037 | 30 | 0 | 0.0 | 0.0 | 0.00 | 0.00 | 0.00 | 87 | 1008.5 |
| 20260505213537 | 30 | 0 | 0.0 | 0.0 | 0.00 | 0.00 | 0.00 | 87 | 1008.6 |
| 20260505213054 | 29 | 0 | 0.0 | 0.0 | 0.00 | 0.00 | 0.00 | 87 | 1008.5 |
| 20260505212539 | 30 | 0 | 0.0 | 0.0 | 0.00 | 0.00 | 0.00 | 87 | 1008.4 |
| 20260505212039 | 30 | 0 | 0.0 | 0.0 | 0.00 | 0.00 | 0.00 | 86 | 1008.4 |
| 20260505211548 | 30 | 0 | 0.0 | 1.0 | 0.00 | 0.00 | 0.00 | 86 | 1008.4 |
| 20260505211039 | 30 | 0 | 0.0 | 2.0 | 0.00 | 0.00 | 0.00 | 85 | 1008.4 |
| 20260505210536 | 30 | 0 | 0.0 | 2.0 | 0.00 | 0.00 | 0.00 | 85 | 1008.4 |
| 20260505210053 | 30 | 0 | 0.0 | 2.0 | 0.00 | 0.00 | 0.00 | 84 | 1008.3 |
| 20260505205538 | 30 | 0 | 0.0 | 1.0 | 0.00 | 0.00 | 0.00 | 83 | 1008.3 |
| 20260505205039 | 31 | 0 | 0.0 | 0.0 | 0.00 | 0.00 | 0.00 | 83 | 1008.2 |
| 20260505204543 | 31 | 0 | 0.0 | 2.0 | 0.00 | 0.00 | 0.00 | 82 | 1008.2 |
| 20260505204039 | 31 | 0 | 0.0 | 2.0 | 0.00 | 0.00 | 0.00 | 81 | 1008.0 |
| 20260505203539 | 32 | 256 | 1.0 | 2.0 | 0.00 | 0.00 | 0.00 | 81 | 1008.0 |
| 20260505203052 | 32 | 256 | 1.0 | 2.0 | 0.00 | 0.00 | 0.00 | 81 | 1008.0 |
| 20260505202538 | 32 | 256 | 1.0 | 2.0 | 0.00 | 0.00 | 0.00 | 79 | 1007.9 |
| 20260505202040 | 33 | 256 | 1.0 | 2.0 | 0.00 | 0.00 | 0.00 | 80 | 1007.9 |
| 20260505201554 | 33 | 256 | 0.0 | 1.0 | 0.00 | 0.00 | 0.00 | 80 | 1007.8 |
| 20260505201039 | 33 | 0 | 0.0 | 0.0 | 0.00 | 0.00 | 0.00 | 79 | 1007.7 |
| 20260505200540 | 33 | 0 | 0.0 | 1.0 | 0.00 | 0.00 | 0.00 | 79 | 1007.7 |
| 20260505200047 | 34 | 0 | 0.0 | 1.0 | 0.00 | 0.00 | 0.00 | 79 | 1007.7 |
| 20260505195538 | 34 | 0 | 0.0 | 2.0 | 0.00 | 0.03 | 0.00 | 78 | 1007.6 |
| 20260505195042 | 34 | 0 | 0.0 | 2.0 | 0.00 | 0.03 | 0.00 | 78 | 1007.6 |
| 20260505194555 | 35 | 256 | 1.0 | 3.0 | 0.00 | 0.03 | 0.00 | 77 | 1007.5 |
| 20260505194040 | 35 | 256 | 1.0 | 3.0 | 0.00 | 0.03 | 0.00 | 76 | 1007.5 |
| 20260505193543 | 36 | 256 | 2.0 | 4.0 | 0.00 | 0.03 | 0.00 | 75 | 1007.5 |
| 20260505193051 | 36 | 259 | 2.0 | 4.0 | 0.00 | 0.03 | 0.00 | 73 | 1007.5 |
| 20260505192542 | 36 | 265 | 2.0 | 4.0 | 0.00 | 0.03 | 0.00 | 73 | 1007.5 |
| 20260505192038 | 37 | 264 | 2.0 | 4.0 | 0.00 | 0.03 | 0.00 | 73 | 1007.5 |
| 20260505191555 | 37 | 254 | 3.0 | 4.0 | 0.00 | 0.03 | 0.00 | 73 | 1007.4 |
| 20260505191038 | 37 | 265 | 2.0 | 4.0 | 0.00 | 0.03 | 0.00 | 72 | 1007.4 |
| 20260505190539 | 38 | 268 | 2.0 | 6.0 | 0.00 | 0.03 | 0.00 | 72 | 1007.4 |
| 20260505190105 | 38 | 277 | 2.0 | 6.0 | 0.00 | 0.03 | 0.00 | 71 | 1007.3 |
| 20260505185539 | 38 | 287 | 3.0 | 6.0 | 0.00 | 0.03 | 0.00 | 71 | 1007.3 |
| 20260505185039 | 39 | 271 | 2.0 | 6.0 | 0.00 | 0.03 | 0.00 | 71 | 1007.3 |
| 20260505184600 | 39 | 277 | 3.0 | 6.0 | 0.00 | 0.03 | 0.00 | 70 | 1007.3 |
| 20260505184039 | 39 | 265 | 3.0 | 6.0 | 0.00 | 0.03 | 0.00 | 70 | 1007.2 |
| 20260505183542 | 40 | 271 | 2.0 | 6.0 | 0.00 | 0.03 | 0.00 | 68 | 1007.2 |
| 20260505183050 | 40 | 267 | 3.0 | 10.0 | 0.00 | 0.03 | 0.00 | 68 | 1007.1 |
| 20260505182539 | 41 | 277 | 3.0 | 10.0 | 0.00 | 0.03 | 0.00 | 66 | 1007.1 |
| 20260505182038 | 41 | 277 | 4.0 | 11.0 | 0.00 | 0.03 | 0.00 | 66 | 1007.0 |
| 20260505181544 | 41 | 254 | 4.0 | 11.0 | 0.00 | 0.03 | 0.00 | 66 | 1007.0 |
| 20260505181041 | 41 | 271 | 6.0 | 11.0 | 0.00 | 0.03 | 0.00 | 65 | 1006.9 |
| 20260505180539 | 42 | 270 | 4.0 | 13.0 | 0.00 | 0.03 | 0.00 | 65 | 1006.9 |
| 20260505180046 | 42 | 284 | 8.0 | 13.0 | 0.00 | 0.03 | 0.00 | 64 | 1006.8 |
| 20260505175539 | 42 | 256 | 3.0 | 9.0 | 0.00 | 0.03 | 0.00 | 64 | 1006.8 |
| 20260505175039 | 42 | 291 | 4.0 | 10.0 | 0.00 | 0.03 | 0.00 | 64 | 1006.7 |
| 20260505174548 | 42 | 284 | 3.0 | 10.0 | 0.00 | 0.03 | 0.00 | 63 | 1006.8 |
| 20260505174056 | 42 | 317 | 6.0 | 11.0 | 0.00 | 0.03 | 0.00 | 63 | 1006.6 |
| 20260505173533 | 43 | 281 | 6.0 | 13.0 | 0.00 | 0.03 | 0.00 | 63 | 1006.6 |
| 20260505173047 | 43 | 309 | 7.0 | 13.0 | 0.00 | 0.03 | 0.00 | 62 | 1006.6 |
| 20260505172533 | 43 | 257 | 6.0 | 12.0 | 0.00 | 0.03 | 0.00 | 62 | 1006.6 |
| 20260505172033 | 43 | 275 | 5.0 | 12.0 | 0.00 | 0.03 | 0.00 | 62 | 1006.6 |
| 20260505171548 | 44 | 290 | 7.0 | 12.0 | 0.00 | 0.03 | 0.00 | 62 | 1006.6 |
| 20260505171037 | 44 | 275 | 7.0 | 12.0 | 0.00 | 0.03 | 0.00 | 61 | 1006.5 |
| 20260505170533 | 44 | 265 | 8.0 | 13.0 | 0.00 | 0.03 | 0.00 | 61 | 1006.6 |
| 20260505170046 | 44 | 269 | 7.0 | 13.0 | 0.00 | 0.03 | 0.00 | 59 | 1006.5 |
| 20260505165533 | 44 | 294 | 8.0 | 12.0 | 0.00 | 0.03 | 0.00 | 59 | 1006.6 |
| 20260505165037 | 44 | 250 | 6.0 | 12.0 | 0.00 | 0.03 | 0.00 | 60 | 1006.5 |
| 20260505164544 | 44 | 261 | 5.0 | 12.0 | 0.00 | 0.03 | 0.00 | 60 | 1006.5 |
| 20260505164037 | 44 | 269 | 7.0 | 13.0 | 0.00 | 0.03 | 0.00 | 59 | 1006.4 |
| 20260505163536 | 45 | 308 | 7.0 | 13.0 | 0.00 | 0.03 | 0.00 | 58 | 1006.4 |
| 20260505163054 | 45 | 281 | 9.0 | 13.0 | 0.00 | 0.03 | 0.00 | 57 | 1006.4 |
| 20260505162538 | 46 | 260 | 5.0 | 12.0 | 0.00 | 0.03 | 0.00 | 58 | 1006.3 |
| 20260505162034 | 45 | 298 | 7.0 | 13.0 | 0.00 | 0.03 | 0.00 | 59 | 1006.3 |
| 20260505161545 | 45 | 304 | 7.0 | 14.0 | 0.00 | 0.03 | 0.00 | 57 | 1006.2 |
| 20260505161034 | 45 | 281 | 7.0 | 14.0 | 0.00 | 0.03 | 0.00 | 55 | 1006.2 |
| 20260505160536 | 46 | 288 | 7.0 | 14.0 | 0.00 | 0.03 | 0.00 | 55 | 1006.2 |
| 20260505153102 | 47 | 281 | 8.0 | 19.0 | 0.00 | 0.03 | 0.00 | 54 | 1006.0 |
| 20260505152539 | 47 | 274 | 10.0 | 17.0 | 0.00 | 0.03 | 0.00 | 53 | 1005.8 |
| 20260505152039 | 47 | 262 | 9.0 | 17.0 | 0.00 | 0.03 | 0.00 | 54 | 1005.9 |
| 20260505151549 | 47 | 261 | 8.0 | 17.0 | 0.00 | 0.03 | 0.00 | 55 | 1005.9 |
| 20260505151037 | 47 | 243 | 7.0 | 17.0 | 0.00 | 0.03 | 0.00 | 54 | 1006.0 |
| 20260505150539 | 47 | 250 | 10.0 | 16.0 | 0.00 | 0.03 | 0.00 | 53 | 1005.9 |
| 20260505150109 | 47 | 275 | 10.0 | 16.0 | 0.00 | 0.03 | 0.00 | 52 | 1005.9 |
| 20260505140535 | 49 | 290 | 8.0 | 17.0 | 0.00 | 0.03 | 0.00 | 54 | 1005.6 |
| 20260505125038 | 49 | 259 | 7.0 | 21.0 | 0.00 | 0.03 | 0.00 | 58 | 1005.3 |
| 20260505124543 | 49 | 310 | 11.0 | 21.0 | 0.00 | 0.03 | 0.00 | 57 | 1005.2 |
| 20260505124038 | 49 | 263 | 10.0 | 19.0 | 0.00 | 0.03 | 0.00 | 57 | 1005.2 |
| 20260505123537 | 49 | 269 | 11.0 | 20.0 | 0.00 | 0.03 | 0.00 | 54 | 1005.2 |
| 20260505123105 | 49 | 270 | 9.0 | 20.0 | 0.00 | 0.03 | 0.00 | 56 | 1005.2 |
| 20260505122537 | 49 | 290 | 10.0 | 18.0 | 0.00 | 0.03 | 0.00 | 57 | 1005.2 |
| 20260505122037 | 49 | 262 | 10.0 | 17.0 | 0.00 | 0.03 | 0.00 | 57 | 1005.1 |
| 20260505121543 | 49 | 267 | 9.0 | 17.0 | 0.00 | 0.03 | 0.00 | 57 | 1005.0 |
| 20260505121040 | 49 | 316 | 10.0 | 16.0 | 0.00 | 0.03 | 0.00 | 58 | 1005.0 |
| 20260505120537 | 49 | 271 | 10.0 | 19.0 | 0.00 | 0.03 | 0.00 | 58 | 1004.9 |
| 20260505120052 | 49 | 282 | 12.0 | 19.0 | 0.00 | 0.03 | 0.00 | 56 | 1004.9 |
| 20260505115536 | 48 | 279 | 10.0 | 17.0 | 0.00 | 0.03 | 0.00 | 58 | 1004.9 |
| 20260505115037 | 48 | 277 | 10.0 | 23.0 | 0.00 | 0.03 | 0.00 | 54 | 1004.8 |
| 20260505114553 | 48 | 280 | 10.0 | 23.0 | 0.00 | 0.03 | 0.00 | 55 | 1004.7 |
| 20260505114038 | 48 | 274 | 11.0 | 21.0 | 0.00 | 0.03 | 0.00 | 53 | 1004.6 |
| 20260505113537 | 48 | 302 | 7.0 | 21.0 | 0.00 | 0.03 | 0.00 | 55 | 1004.7 |
| 20260505113051 | 49 | 284 | 11.0 | 21.0 | 0.00 | 0.03 | 0.00 | 52 | 1004.6 |
| 20260505112536 | 50 | 273 | 12.0 | 20.0 | 0.00 | 0.03 | 0.00 | 53 | 1004.6 |
| 20260505112036 | 50 | 276 | 13.0 | 20.0 | 0.00 | 0.03 | 0.00 | 52 | 1004.5 |
| 20260505111546 | 50 | 265 | 12.0 | 19.0 | 0.00 | 0.03 | 0.00 | 54 | 1004.3 |
| 20260505111038 | 50 | 288 | 11.0 | 25.0 | 0.00 | 0.03 | 0.00 | 52 | 1004.3 |
| 20260505110538 | 50 | 241 | 13.0 | 25.0 | 0.00 | 0.03 | 0.00 | 52 | 1004.3 |
| 20260505102036 | 49 | 324 | 11.0 | 23.0 | 0.00 | 0.03 | 0.00 | 53 | 1003.9 |
| 20260505101546 | 50 | 349 | 9.0 | 23.0 | 0.00 | 0.03 | 0.00 | 53 | 1003.8 |
| 20260505101039 | 51 | 295 | 15.0 | 22.0 | 0.00 | 0.03 | 0.00 | 54 | 1003.7 |
| 20260505100537 | 51 | 295 | 12.0 | 20.0 | 0.00 | 0.03 | 0.00 | 56 | 1003.7 |
| 20260505100044 | 51 | 259 | 13.0 | 20.0 | 0.00 | 0.03 | 0.00 | 57 | 1003.7 |
| 20260505095537 | 51 | 246 | 12.0 | 20.0 | 0.00 | 0.03 | 0.00 | 59 | 1003.5 |
| 20260505095039 | 51 | 271 | 11.0 | 18.0 | 0.00 | 0.03 | 0.00 | 56 | 1003.6 |
| 20260505094557 | 50 | 339 | 10.0 | 16.0 | 0.00 | 0.03 | 0.00 | 58 | 1003.7 |
| 20260505094037 | 49 | 283 | 10.0 | 16.0 | 0.00 | 0.03 | 0.00 | 56 | 1003.6 |
| 20260505093537 | 50 | 259 | 10.0 | 16.0 | 0.00 | 0.03 | 0.00 | 59 | 1003.6 |
| 20260505093048 | 49 | 296 | 7.0 | 19.0 | 0.00 | 0.03 | 0.00 | 62 | 1003.5 |
| 20260505092540 | 48 | 288 | 8.0 | 19.0 | 0.00 | 0.03 | 0.00 | 66 | 1003.5 |
| 20260505092036 | 48 | 246 | 11.0 | 20.0 | 0.00 | 0.03 | 0.00 | 61 | 1003.5 |
| 20260505091550 | 49 | 257 | 10.0 | 20.0 | 0.00 | 0.03 | 0.00 | 60 | 1003.4 |